sensor_id;sensor_type;location;lat;lon;timestamp;pressure;altitude;pressure_sealevel;temperature;humidity
76460;BME280;65299;46.084;18.762;2024-02-26T00:01:53;99850.56;;;11.25;83.27
76460;BME280;65299;46.084;18.762;2024-02-26T00:04:54;99852.63;;;11.28;83.22
76460;BME280;65299;46.084;18.762;2024-02-26T00:07:54;99841.47;;;11.31;83.13
76460;BME280;65299;46.084;18.762;2024-02-26T00:10:56;99848.75;;;11.16;84.33
76460;BME280;65299;46.084;18.762;2024-02-26T00:13:56;99843.13;;;11.22;84.20
76460;BME280;65299;46.084;18.762;2024-02-26T00:16:58;99837.38;;;11.10;84.18
76460;BME280;65299;46.084;18.762;2024-02-26T00:19:58;99838.28;;;10.96;84.11
76460;BME280;65299;46.084;18.762;2024-02-26T00:22:58;99833.16;;;11.04;83.68
76460;BME280;65299;46.084;18.762;2024-02-26T00:25:59;99832.06;;;11.10;83.39
76460;BME280;65299;46.084;18.762;2024-02-26T00:28:59;99818.56;;;11.07;83.41
76460;BME280;65299;46.084;18.762;2024-02-26T00:32:00;99820.94;;;11.08;83.47
76460;BME280;65299;46.084;18.762;2024-02-26T00:35:00;99814.56;;;11.09;83.44
76460;BME280;65299;46.084;18.762;2024-02-26T00:38:01;99818.16;;;11.23;82.73
76460;BME280;65299;46.084;18.762;2024-02-26T00:41:03;99815.03;;;11.16;83.60
76460;BME280;65299;46.084;18.762;2024-02-26T00:44:03;99812.00;;;10.94;85.44
76460;BME280;65299;46.084;18.762;2024-02-26T00:47:04;99814.59;;;11.04;84.26
76460;BME280;65299;46.084;18.762;2024-02-26T00:50:05;99809.91;;;10.91;84.24
76460;BME280;65299;46.084;18.762;2024-02-26T00:53:05;99806.16;;;10.97;84.11
76460;BME280;65299;46.084;18.762;2024-02-26T00:56:05;99809.88;;;10.96;83.93
76460;BME280;65299;46.084;18.762;2024-02-26T00:59:06;99811.84;;;11.14;83.30
76460;BME280;65299;46.084;18.762;2024-02-26T01:02:07;99814.72;;;11.23;82.91
76460;BME280;65299;46.084;18.762;2024-02-26T01:05:08;99815.00;;;11.21;83.10
76460;BME280;65299;46.084;18.762;2024-02-26T01:08:11;99809.53;;;11.36;82.60
76460;BME280;65299;46.084;18.762;2024-02-26T01:11:12;99806.72;;;11.28;82.82
76460;BME280;65299;46.084;18.762;2024-02-26T01:14:12;99803.94;;;11.09;83.58
76460;BME280;65299;46.084;18.762;2024-02-26T01:17:12;99802.41;;;10.98;83.64
76460;BME280;65299;46.084;18.762;2024-02-26T01:20:13;99802.56;;;11.12;83.43
76460;BME280;65299;46.084;18.762;2024-02-26T01:23:13;99802.41;;;10.98;83.70
76460;BME280;65299;46.084;18.762;2024-02-26T01:26:14;99803.22;;;10.99;84.11
76460;BME280;65299;46.084;18.762;2024-02-26T01:29:14;99795.81;;;11.29;83.03
76460;BME280;65299;46.084;18.762;2024-02-26T01:32:14;99797.63;;;11.34;82.33
76460;BME280;65299;46.084;18.762;2024-02-26T01:35:15;99800.88;;;11.26;82.81
76460;BME280;65299;46.084;18.762;2024-02-26T01:38:15;99790.25;;;11.26;82.92
76460;BME280;65299;46.084;18.762;2024-02-26T01:41:16;99780.25;;;11.18;82.84
76460;BME280;65299;46.084;18.762;2024-02-26T01:44:16;99779.94;;;11.19;82.93
76460;BME280;65299;46.084;18.762;2024-02-26T01:47:17;99781.53;;;11.20;83.02
76460;BME280;65299;46.084;18.762;2024-02-26T01:50:18;99777.41;;;11.04;83.41
76460;BME280;65299;46.084;18.762;2024-02-26T01:53:19;99771.31;;;11.04;83.64
76460;BME280;65299;46.084;18.762;2024-02-26T01:56:21;99772.75;;;10.91;83.66
76460;BME280;65299;46.084;18.762;2024-02-26T01:59:22;99770.91;;;10.87;84.16
76460;BME280;65299;46.084;18.762;2024-02-26T02:02:22;99771.31;;;10.70;83.96
76460;BME280;65299;46.084;18.762;2024-02-26T02:05:24;99772.81;;;10.81;83.72
76460;BME280;65299;46.084;18.762;2024-02-26T02:08:25;99765.03;;;10.56;84.72
76460;BME280;65299;46.084;18.762;2024-02-26T02:11:26;99761.56;;;10.60;84.94
76460;BME280;65299;46.084;18.762;2024-02-26T02:14:26;99765.63;;;10.43;85.62
76460;BME280;65299;46.084;18.762;2024-02-26T02:17:27;99761.47;;;10.32;85.81
76460;BME280;65299;46.084;18.762;2024-02-26T02:20:35;99764.34;;;10.35;85.85
76460;BME280;65299;46.084;18.762;2024-02-26T02:23:35;99763.91;;;10.62;84.33
76460;BME280;65299;46.084;18.762;2024-02-26T02:26:35;99752.28;;;10.58;84.21
76460;BME280;65299;46.084;18.762;2024-02-26T02:29:36;99752.75;;;10.65;84.02
76460;BME280;65299;46.084;18.762;2024-02-26T02:32:39;99759.72;;;10.56;84.17
76460;BME280;65299;46.084;18.762;2024-02-26T02:35:41;99756.25;;;10.60;83.80
76460;BME280;65299;46.084;18.762;2024-02-26T02:38:49;99755.22;;;10.56;84.23
76460;BME280;65299;46.084;18.762;2024-02-26T02:41:53;99759.94;;;10.59;84.29
76460;BME280;65299;46.084;18.762;2024-02-26T02:44:53;99759.09;;;10.69;83.97
76460;BME280;65299;46.084;18.762;2024-02-26T02:47:53;99758.38;;;10.58;84.16
76460;BME280;65299;46.084;18.762;2024-02-26T02:50:54;99747.91;;;10.77;83.61
76460;BME280;65299;46.084;18.762;2024-02-26T02:53:55;99759.28;;;10.82;82.85
76460;BME280;65299;46.084;18.762;2024-02-26T02:56:55;99756.41;;;10.74;83.22
76460;BME280;65299;46.084;18.762;2024-02-26T02:59:56;99758.00;;;10.75;82.97
76460;BME280;65299;46.084;18.762;2024-02-26T03:02:56;99754.88;;;10.63;83.31
76460;BME280;65299;46.084;18.762;2024-02-26T03:05:57;99747.06;;;10.43;84.25
76460;BME280;65299;46.084;18.762;2024-02-26T03:08:57;99757.00;;;10.61;83.64
76460;BME280;65299;46.084;18.762;2024-02-26T03:11:57;99748.03;;;10.57;83.32
76460;BME280;65299;46.084;18.762;2024-02-26T03:14:58;99753.09;;;10.53;83.65
76460;BME280;65299;46.084;18.762;2024-02-26T03:17:58;99755.50;;;10.50;84.08
76460;BME280;65299;46.084;18.762;2024-02-26T03:20:59;99757.00;;;10.61;83.69
76460;BME280;65299;46.084;18.762;2024-02-26T03:23:59;99760.41;;;10.71;82.99
76460;BME280;65299;46.084;18.762;2024-02-26T03:26:59;99757.00;;;10.66;82.90
76460;BME280;65299;46.084;18.762;2024-02-26T03:30:00;99762.38;;;10.56;83.46
76460;BME280;65299;46.084;18.762;2024-02-26T03:33:00;99764.81;;;10.47;83.60
76460;BME280;65299;46.084;18.762;2024-02-26T03:36:01;99764.38;;;10.74;82.36
76460;BME280;65299;46.084;18.762;2024-02-26T03:39:02;99761.63;;;10.50;83.15
76460;BME280;65299;46.084;18.762;2024-02-26T03:42:07;99758.81;;;10.32;83.84
76460;BME280;65299;46.084;18.762;2024-02-26T03:45:08;99758.00;;;10.31;84.40
76460;BME280;65299;46.084;18.762;2024-02-26T03:48:09;99764.34;;;10.40;83.84
76460;BME280;65299;46.084;18.762;2024-02-26T03:51:10;99759.81;;;10.41;83.89
76460;BME280;65299;46.084;18.762;2024-02-26T03:54:10;99762.19;;;10.42;83.30
76460;BME280;65299;46.084;18.762;2024-02-26T03:57:11;99766.19;;;10.40;83.24
76460;BME280;65299;46.084;18.762;2024-02-26T04:00:12;99761.09;;;10.48;82.68
76460;BME280;65299;46.084;18.762;2024-02-26T04:03:13;99753.75;;;10.35;82.93
76460;BME280;65299;46.084;18.762;2024-02-26T04:06:14;99759.16;;;10.15;83.28
76460;BME280;65299;46.084;18.762;2024-02-26T04:09:14;99759.16;;;10.15;83.55
76460;BME280;65299;46.084;18.762;2024-02-26T04:12:15;99754.59;;;10.26;83.01
76460;BME280;65299;46.084;18.762;2024-02-26T04:15:15;99756.78;;;10.14;83.73
76460;BME280;65299;46.084;18.762;2024-02-26T04:18:15;99754.66;;;10.06;83.87
76460;BME280;65299;46.084;18.762;2024-02-26T04:21:16;99758.06;;;10.16;83.70
76460;BME280;65299;46.084;18.762;2024-02-26T04:24:16;99753.84;;;10.10;83.73
76460;BME280;65299;46.084;18.762;2024-02-26T04:27:17;99759.50;;;9.88;83.72
76460;BME280;65299;46.084;18.762;2024-02-26T04:30:17;99757.97;;;9.72;83.25
76460;BME280;65299;46.084;18.762;2024-02-26T04:33:18;99766.19;;;9.66;83.95
76460;BME280;65299;46.084;18.762;2024-02-26T04:36:18;99750.56;;;9.64;83.77
76460;BME280;65299;46.084;18.762;2024-02-26T04:39:18;99743.97;;;9.57;83.85
76460;BME280;65299;46.084;18.762;2024-02-26T04:42:19;99743.16;;;9.51;84.06
76460;BME280;65299;46.084;18.762;2024-02-26T04:45:19;99749.59;;;9.05;86.04
76460;BME280;65299;46.084;18.762;2024-02-26T04:48:20;99741.09;;;9.33;84.62
76460;BME280;65299;46.084;18.762;2024-02-26T04:51:20;99735.78;;;9.33;84.08
76460;BME280;65299;46.084;18.762;2024-02-26T04:54:20;99733.16;;;9.28;84.23
76460;BME280;65299;46.084;18.762;2024-02-26T04:57:21;99738.47;;;9.13;84.98
76460;BME280;65299;46.084;18.762;2024-02-26T05:00:22;99738.75;;;9.01;85.73
76460;BME280;65299;46.084;18.762;2024-02-26T05:03:22;99733.72;;;9.05;85.54
76460;BME280;65299;46.084;18.762;2024-02-26T05:06:23;99732.13;;;8.99;86.02
76460;BME280;65299;46.084;18.762;2024-02-26T05:09:23;99733.47;;;8.86;86.50
76460;BME280;65299;46.084;18.762;2024-02-26T05:12:24;99734.53;;;8.85;86.27
76460;BME280;65299;46.084;18.762;2024-02-26T05:15:24;99738.22;;;8.74;86.65
76460;BME280;65299;46.084;18.762;2024-02-26T05:18:24;99730.03;;;9.06;85.66
76460;BME280;65299;46.084;18.762;2024-02-26T05:21:25;99730.00;;;9.01;85.71
76460;BME280;65299;46.084;18.762;2024-02-26T05:24:25;99731.34;;;8.98;85.41
76460;BME280;65299;46.084;18.762;2024-02-26T05:27:26;99735.59;;;8.89;85.43
76460;BME280;65299;46.084;18.762;2024-02-26T05:30:26;99741.91;;;8.78;85.67
76460;BME280;65299;46.084;18.762;2024-02-26T05:33:28;99741.66;;;8.80;85.83
76460;BME280;65299;46.084;18.762;2024-02-26T05:36:28;99750.13;;;8.77;85.79
76460;BME280;65299;46.084;18.762;2024-02-26T05:39:33;99754.34;;;8.98;85.22
76460;BME280;65299;46.084;18.762;2024-02-26T05:42:33;99761.00;;;9.05;85.24
76460;BME280;65299;46.084;18.762;2024-02-26T05:45:34;99755.94;;;8.94;85.41
76460;BME280;65299;46.084;18.762;2024-02-26T05:48:34;99765.22;;;8.91;85.34
76460;BME280;65299;46.084;18.762;2024-02-26T05:51:34;99765.47;;;9.00;85.05
76460;BME280;65299;46.084;18.762;2024-02-26T05:54:35;99763.09;;;8.98;85.35
76460;BME280;65299;46.084;18.762;2024-02-26T05:57:35;99768.13;;;9.00;85.37
76460;BME280;65299;46.084;18.762;2024-02-26T06:00:36;99767.59;;;9.03;85.35
76460;BME280;65299;46.084;18.762;2024-02-26T06:03:36;99772.09;;;9.02;85.46
76460;BME280;65299;46.084;18.762;2024-02-26T06:06:36;99781.63;;;8.98;85.62
76460;BME280;65299;46.084;18.762;2024-02-26T06:09:37;99772.63;;;8.99;85.63
76460;BME280;65299;46.084;18.762;2024-02-26T06:12:37;99780.31;;;9.06;85.68
76460;BME280;65299;46.084;18.762;2024-02-26T06:15:38;99774.72;;;9.23;88.21
76460;BME280;65299;46.084;18.762;2024-02-26T06:18:38;99778.94;;;9.39;87.39
76460;BME280;65299;46.084;18.762;2024-02-26T06:21:39;99776.03;;;9.45;86.94
76460;BME280;65299;46.084;18.762;2024-02-26T06:24:39;99773.63;;;9.54;86.57
76460;BME280;65299;46.084;18.762;2024-02-26T06:27:39;99783.94;;;9.70;86.29
76460;BME280;65299;46.084;18.762;2024-02-26T06:30:40;99780.94;;;9.92;85.60
76460;BME280;65299;46.084;18.762;2024-02-26T06:33:40;99798.63;;;10.22;84.48
76460;BME280;65299;46.084;18.762;2024-02-26T06:36:41;99788.28;;;10.20;84.84
76460;BME280;65299;46.084;18.762;2024-02-26T06:39:41;99791.06;;;10.49;84.18
76460;BME280;65299;46.084;18.762;2024-02-26T06:42:42;99785.38;;;10.65;83.42
76460;BME280;65299;46.084;18.762;2024-02-26T06:45:48;99784.94;;;10.92;82.42
76460;BME280;65299;46.084;18.762;2024-02-26T06:48:48;99793.84;;;11.11;81.76
76460;BME280;65299;46.084;18.762;2024-02-26T06:51:49;99794.41;;;11.37;80.93
76460;BME280;65299;46.084;18.762;2024-02-26T06:54:50;99790.75;;;10.99;82.31
76460;BME280;65299;46.084;18.762;2024-02-26T06:57:52;99791.31;;;11.25;81.60
76460;BME280;65299;46.084;18.762;2024-02-26T07:00:53;99796.22;;;11.41;81.21
76460;BME280;65299;46.084;18.762;2024-02-26T07:03:53;99800.28;;;11.00;83.05
76460;BME280;65299;46.084;18.762;2024-02-26T07:06:54;99801.88;;;11.01;83.56
76460;BME280;65299;46.084;18.762;2024-02-26T07:09:55;99815.00;;;11.21;83.22
76460;BME280;65299;46.084;18.762;2024-02-26T07:12:55;99809.28;;;11.38;82.04
76460;BME280;65299;46.084;18.762;2024-02-26T07:15:55;99806.88;;;11.36;82.73
76460;BME280;65299;46.084;18.762;2024-02-26T07:18:56;99802.34;;;11.71;81.41
76460;BME280;65299;46.084;18.762;2024-02-26T07:21:58;99804.00;;;11.67;81.60
76460;BME280;65299;46.084;18.762;2024-02-26T07:25:01;99801.22;;;11.77;81.07
76460;BME280;65299;46.084;18.762;2024-02-26T07:28:01;99808.72;;;11.93;80.86
76460;BME280;65299;46.084;18.762;2024-02-26T07:31:02;99807.66;;;12.18;80.08
76460;BME280;65299;46.084;18.762;2024-02-26T07:34:03;99808.41;;;12.42;78.79
76460;BME280;65299;46.084;18.762;2024-02-26T07:37:03;99807.50;;;11.86;81.16
76460;BME280;65299;46.084;18.762;2024-02-26T07:40:04;99806.41;;;12.10;80.22
76460;BME280;65299;46.084;18.762;2024-02-26T07:43:06;99815.66;;;11.94;80.67
76460;BME280;65299;46.084;18.762;2024-02-26T07:46:06;99814.28;;;12.20;80.50
76460;BME280;65299;46.084;18.762;2024-02-26T07:49:07;99820.53;;;12.11;81.65
76460;BME280;65299;46.084;18.762;2024-02-26T07:52:08;99821.50;;;12.38;81.32
76460;BME280;65299;46.084;18.762;2024-02-26T07:55:08;99818.22;;;12.65;80.12
76460;BME280;65299;46.084;18.762;2024-02-26T07:58:09;99808.56;;;12.50;79.74
76460;BME280;65299;46.084;18.762;2024-02-26T08:01:13;99821.75;;;12.79;79.26
76460;BME280;65299;46.084;18.762;2024-02-26T08:04:14;99811.00;;;12.47;81.23
76460;BME280;65299;46.084;18.762;2024-02-26T08:07:14;99827.00;;;13.03;79.69
76460;BME280;65299;46.084;18.762;2024-02-26T08:10:15;99821.44;;;13.18;79.22
76460;BME280;65299;46.084;18.762;2024-02-26T08:13:15;99821.28;;;13.28;79.02
76460;BME280;65299;46.084;18.762;2024-02-26T08:16:16;99816.06;;;13.23;78.67
76460;BME280;65299;46.084;18.762;2024-02-26T08:19:16;99810.06;;;13.31;78.14
76460;BME280;65299;46.084;18.762;2024-02-26T08:22:17;99824.94;;;13.32;77.94
76460;BME280;65299;46.084;18.762;2024-02-26T08:25:18;99818.50;;;13.19;78.67
76460;BME280;65299;46.084;18.762;2024-02-26T08:28:18;99824.16;;;13.77;76.23
76460;BME280;65299;46.084;18.762;2024-02-26T08:31:19;99816.16;;;13.77;76.44
76460;BME280;65299;46.084;18.762;2024-02-26T08:34:20;99816.91;;;13.51;76.68
76460;BME280;65299;46.084;18.762;2024-02-26T08:37:20;99817.16;;;13.68;76.48
76460;BME280;65299;46.084;18.762;2024-02-26T08:40:21;99818.94;;;13.86;76.75
76460;BME280;65299;46.084;18.762;2024-02-26T08:43:21;99813.38;;;13.69;76.00
76460;BME280;65299;46.084;18.762;2024-02-26T08:46:22;99819.44;;;13.74;76.53
76460;BME280;65299;46.084;18.762;2024-02-26T08:49:22;99817.59;;;13.56;76.90
76460;BME280;65299;46.084;18.762;2024-02-26T08:52:24;99824.19;;;13.32;78.08
76460;BME280;65299;46.084;18.762;2024-02-26T08:55:24;99814.50;;;13.81;75.71
76460;BME280;65299;46.084;18.762;2024-02-26T08:58:27;99804.22;;;13.88;75.20
76460;BME280;65299;46.084;18.762;2024-02-26T09:01:27;99816.28;;;13.99;74.62
76460;BME280;65299;46.084;18.762;2024-02-26T09:04:28;99821.22;;;14.20;74.83
76460;BME280;65299;46.084;18.762;2024-02-26T09:07:28;99824.69;;;14.06;75.60
76460;BME280;65299;46.084;18.762;2024-02-26T09:10:28;99832.50;;;14.30;74.39
76460;BME280;65299;46.084;18.762;2024-02-26T09:13:29;99832.53;;;13.71;75.91
76460;BME280;65299;46.084;18.762;2024-02-26T09:16:30;99832.78;;;13.42;76.56
76460;BME280;65299;46.084;18.762;2024-02-26T09:19:30;99837.16;;;13.52;75.72
76460;BME280;65299;46.084;18.762;2024-02-26T09:22:31;99833.06;;;14.13;73.05
76460;BME280;65299;46.084;18.762;2024-02-26T09:25:31;99831.13;;;14.33;72.44
76460;BME280;65299;46.084;18.762;2024-02-26T09:28:33;99832.88;;;14.51;71.92
76460;BME280;65299;46.084;18.762;2024-02-26T09:31:37;99835.19;;;14.30;71.82
76460;BME280;65299;46.084;18.762;2024-02-26T09:34:40;99830.31;;;14.46;71.60
76460;BME280;65299;46.084;18.762;2024-02-26T09:37:41;99833.47;;;14.07;71.12
76460;BME280;65299;46.084;18.762;2024-02-26T09:40:43;99831.50;;;14.12;72.77
76460;BME280;65299;46.084;18.762;2024-02-26T09:43:45;99837.75;;;14.35;72.51
76460;BME280;65299;46.084;18.762;2024-02-26T09:46:47;99827.44;;;14.42;72.58
76460;BME280;65299;46.084;18.762;2024-02-26T09:49:51;99832.91;;;14.37;71.82
76460;BME280;65299;46.084;18.762;2024-02-26T09:52:56;99833.31;;;14.31;71.93
76460;BME280;65299;46.084;18.762;2024-02-26T09:56:00;99839.03;;;14.38;71.12
76460;BME280;65299;46.084;18.762;2024-02-26T09:59:01;99833.72;;;14.73;69.80
76460;BME280;65299;46.084;18.762;2024-02-26T10:02:05;99834.50;;;15.10;69.22
76460;BME280;65299;46.084;18.762;2024-02-26T10:05:07;99832.41;;;15.42;67.95
76460;BME280;65299;46.084;18.762;2024-02-26T10:08:12;99841.19;;;15.65;68.05
76460;BME280;65299;46.084;18.762;2024-02-26T10:11:13;99834.47;;;15.76;67.54
76460;BME280;65299;46.084;18.762;2024-02-26T10:14:14;99825.00;;;16.09;65.53
76460;BME280;65299;46.084;18.762;2024-02-26T10:17:16;99829.50;;;15.92;66.17
76460;BME280;65299;46.084;18.762;2024-02-26T10:20:17;99823.16;;;16.18;66.37
76460;BME280;65299;46.084;18.762;2024-02-26T10:23:18;99824.13;;;16.31;66.66
76460;BME280;65299;46.084;18.762;2024-02-26T10:26:19;99824.84;;;16.71;63.50
76460;BME280;65299;46.084;18.762;2024-02-26T10:29:21;99817.28;;;16.73;63.47
76460;BME280;65299;46.084;18.762;2024-02-26T10:32:21;99823.59;;;16.12;64.92
76460;BME280;65299;46.084;18.762;2024-02-26T10:35:22;99822.78;;;16.50;64.28
76460;BME280;65299;46.084;18.762;2024-02-26T10:38:22;99827.16;;;16.46;64.58
76460;BME280;65299;46.084;18.762;2024-02-26T10:41:23;99822.34;;;16.91;63.46
76460;BME280;65299;46.084;18.762;2024-02-26T10:44:26;99813.50;;;16.91;61.89
76460;BME280;65299;46.084;18.762;2024-02-26T10:47:30;99817.13;;;16.95;64.21
76460;BME280;65299;46.084;18.762;2024-02-26T10:50:34;99804.69;;;16.99;61.57
76460;BME280;65299;46.084;18.762;2024-02-26T10:53:35;99805.97;;;16.76;61.41
76460;BME280;65299;46.084;18.762;2024-02-26T10:56:36;99808.06;;;16.22;62.96
76460;BME280;65299;46.084;18.762;2024-02-26T10:59:40;99808.72;;;16.36;63.56
76460;BME280;65299;46.084;18.762;2024-02-26T11:02:41;99805.97;;;16.19;63.98
76460;BME280;65299;46.084;18.762;2024-02-26T11:05:48;99795.00;;;16.38;62.99
76460;BME280;65299;46.084;18.762;2024-02-26T11:08:49;99799.34;;;16.82;61.90
76460;BME280;65299;46.084;18.762;2024-02-26T11:11:51;99797.69;;;16.46;61.13
76460;BME280;65299;46.084;18.762;2024-02-26T11:14:55;99798.22;;;16.91;61.25
76460;BME280;65299;46.084;18.762;2024-02-26T11:17:57;99793.81;;;16.87;61.94
76460;BME280;65299;46.084;18.762;2024-02-26T11:20:59;99786.34;;;16.41;61.20
76460;BME280;65299;46.084;18.762;2024-02-26T11:24:02;99775.44;;;16.37;62.14
76460;BME280;65299;46.084;18.762;2024-02-26T11:27:04;99778.09;;;16.12;62.82
76460;BME280;65299;46.084;18.762;2024-02-26T11:30:09;99778.22;;;16.63;62.54
76460;BME280;65299;46.084;18.762;2024-02-26T11:33:10;99776.78;;;16.66;61.16
76460;BME280;65299;46.084;18.762;2024-02-26T11:36:12;99769.03;;;17.15;60.40
76460;BME280;65299;46.084;18.762;2024-02-26T11:39:14;99773.44;;;17.11;61.14
76460;BME280;65299;46.084;18.762;2024-02-26T11:42:17;99773.94;;;16.71;62.07
76460;BME280;65299;46.084;18.762;2024-02-26T11:48:46;99769.69;;;15.88;63.93
76460;BME280;65299;46.084;18.762;2024-02-26T11:51:51;99765.53;;;16.29;62.82
76460;BME280;65299;46.084;18.762;2024-02-26T11:54:53;99756.69;;;16.20;62.57
76460;BME280;65299;46.084;18.762;2024-02-26T11:57:54;99759.13;;;16.65;60.77
76460;BME280;65299;46.084;18.762;2024-02-26T12:00:57;99752.19;;;16.98;60.32
76460;BME280;65299;46.084;18.762;2024-02-26T12:03:58;99749.28;;;17.28;60.53
76460;BME280;65299;46.084;18.762;2024-02-26T12:07:01;99755.75;;;17.10;60.03
76460;BME280;65299;46.084;18.762;2024-02-26T12:10:27;99753.75;;;16.90;60.60
76460;BME280;65299;46.084;18.762;2024-02-26T12:13:29;99754.81;;;17.15;59.38
76460;BME280;65299;46.084;18.762;2024-02-26T12:16:40;99751.97;;;17.28;58.41
76460;BME280;65299;46.084;18.762;2024-02-26T12:19:42;99752.91;;;17.24;59.00
76460;BME280;65299;46.084;18.762;2024-02-26T12:22:46;99750.44;;;16.93;60.43
76460;BME280;65299;46.084;18.762;2024-02-26T12:25:49;99755.19;;;16.88;60.48
76460;BME280;65299;46.084;18.762;2024-02-26T12:28:50;99748.38;;;17.16;59.92
76460;BME280;65299;46.084;18.762;2024-02-26T12:31:50;99735.34;;;17.43;59.16
76460;BME280;65299;46.084;18.762;2024-02-26T12:34:51;99741.25;;;17.20;58.93
76460;BME280;65299;46.084;18.762;2024-02-26T12:37:53;99737.44;;;17.29;58.50
76460;BME280;65299;46.084;18.762;2024-02-26T12:40:53;99731.38;;;17.41;58.58
76460;BME280;65299;46.084;18.762;2024-02-26T12:43:54;99735.22;;;17.78;57.72
76460;BME280;65299;46.084;18.762;2024-02-26T12:47:01;99724.47;;;17.40;58.32
76460;BME280;65299;46.084;18.762;2024-02-26T12:50:03;99728.38;;;17.51;57.99
76460;BME280;65299;46.084;18.762;2024-02-26T12:53:05;99729.63;;;17.62;57.59
76460;BME280;65299;46.084;18.762;2024-02-26T12:56:07;99730.31;;;18.09;57.94
76460;BME280;65299;46.084;18.762;2024-02-26T12:59:09;99734.38;;;18.15;56.91
76460;BME280;65299;46.084;18.762;2024-02-26T13:02:10;99728.53;;;17.63;58.06
76460;BME280;65299;46.084;18.762;2024-02-26T13:05:12;99720.94;;;17.65;57.53
76460;BME280;65299;46.084;18.762;2024-02-26T13:08:20;99729.09;;;17.77;57.11
76460;BME280;65299;46.084;18.762;2024-02-26T13:11:21;99722.31;;;18.21;56.51
76460;BME280;65299;46.084;18.762;2024-02-26T13:14:22;99730.00;;;17.81;57.16
76460;BME280;65299;46.084;18.762;2024-02-26T13:17:22;99733.44;;;18.40;54.92
76460;BME280;65299;46.084;18.762;2024-02-26T13:20:27;99733.69;;;18.47;56.56
76460;BME280;65299;46.084;18.762;2024-02-26T13:23:28;99734.66;;;18.43;54.96
76460;BME280;65299;46.084;18.762;2024-02-26T13:26:29;99722.97;;;17.97;56.10
76460;BME280;65299;46.084;18.762;2024-02-26T13:29:29;99719.41;;;17.85;56.85
76460;BME280;65299;46.084;18.762;2024-02-26T13:32:32;99715.19;;;17.75;56.13
76460;BME280;65299;46.084;18.762;2024-02-26T13:35:32;99727.16;;;17.78;56.78
76460;BME280;65299;46.084;18.762;2024-02-26T13:38:35;99722.41;;;18.33;56.00
76460;BME280;65299;46.084;18.762;2024-02-26T13:41:35;99722.59;;;18.07;55.18
76460;BME280;65299;46.084;18.762;2024-02-26T13:44:36;99723.38;;;18.29;54.78
76460;BME280;65299;46.084;18.762;2024-02-26T13:47:39;99717.56;;;18.47;54.49
76460;BME280;65299;46.084;18.762;2024-02-26T13:50:42;99713.28;;;18.05;54.18
76460;BME280;65299;46.084;18.762;2024-02-26T13:53:43;99715.69;;;18.68;53.10
76460;BME280;65299;46.084;18.762;2024-02-26T13:56:43;99716.25;;;18.53;53.14
76460;BME280;65299;46.084;18.762;2024-02-26T13:59:44;99714.41;;;18.04;54.23
76460;BME280;65299;46.084;18.762;2024-02-26T14:02:44;99717.06;;;18.54;54.74
76460;BME280;65299;46.084;18.762;2024-02-26T14:05:45;99724.19;;;18.50;54.24
76460;BME280;65299;46.084;18.762;2024-02-26T14:08:46;99718.94;;;18.53;55.16
76460;BME280;65299;46.084;18.762;2024-02-26T14:11:46;99722.94;;;18.68;55.19
76460;BME280;65299;46.084;18.762;2024-02-26T14:14:47;99725.38;;;18.40;55.58
76460;BME280;65299;46.084;18.762;2024-02-26T14:17:48;99712.53;;;18.66;53.97
76460;BME280;65299;46.084;18.762;2024-02-26T14:20:54;99733.06;;;18.50;54.66
76460;BME280;65299;46.084;18.762;2024-02-26T14:23:55;99724.53;;;18.48;54.48
76460;BME280;65299;46.084;18.762;2024-02-26T14:26:56;99731.50;;;18.41;55.58
76460;BME280;65299;46.084;18.762;2024-02-26T14:29:56;99730.59;;;18.37;54.69
76460;BME280;65299;46.084;18.762;2024-02-26T14:32:56;99725.22;;;18.37;54.22
76460;BME280;65299;46.084;18.762;2024-02-26T14:35:57;99736.16;;;18.32;53.52
76460;BME280;65299;46.084;18.762;2024-02-26T14:38:57;99734.31;;;18.53;53.42
76460;BME280;65299;46.084;18.762;2024-02-26T14:41:58;99733.63;;;18.56;53.59
76460;BME280;65299;46.084;18.762;2024-02-26T14:44:59;99736.56;;;18.42;53.00
76460;BME280;65299;46.084;18.762;2024-02-26T14:48:00;99732.78;;;18.64;53.79
76460;BME280;65299;46.084;18.762;2024-02-26T14:51:02;99730.38;;;18.50;52.82
76460;BME280;65299;46.084;18.762;2024-02-26T14:54:02;99728.03;;;18.49;53.27
76460;BME280;65299;46.084;18.762;2024-02-26T14:57:04;99736.28;;;18.35;53.81
76460;BME280;65299;46.084;18.762;2024-02-26T15:00:05;99733.59;;;18.14;54.04
76460;BME280;65299;46.084;18.762;2024-02-26T15:03:07;99737.16;;;17.98;54.50
76460;BME280;65299;46.084;18.762;2024-02-26T15:06:08;99734.59;;;17.81;54.92
76460;BME280;65299;46.084;18.762;2024-02-26T15:09:08;99745.75;;;17.91;55.75
76460;BME280;65299;46.084;18.762;2024-02-26T15:12:09;99743.66;;;17.97;56.00
76460;BME280;65299;46.084;18.762;2024-02-26T15:15:10;99749.06;;;17.88;56.16
76460;BME280;65299;46.084;18.762;2024-02-26T15:18:11;99741.09;;;18.00;56.62
76460;BME280;65299;46.084;18.762;2024-02-26T15:21:15;99747.31;;;17.92;57.28
76460;BME280;65299;46.084;18.762;2024-02-26T15:24:16;99745.75;;;17.91;57.66
76460;BME280;65299;46.084;18.762;2024-02-26T15:27:17;99752.41;;;17.85;57.91
76460;BME280;65299;46.084;18.762;2024-02-26T15:30:18;99758.88;;;17.84;58.16
76460;BME280;65299;46.084;18.762;2024-02-26T15:33:18;99746.47;;;17.71;58.03
76460;BME280;65299;46.084;18.762;2024-02-26T15:36:19;99756.34;;;17.50;59.27
76460;BME280;65299;46.084;18.762;2024-02-26T15:39:19;99748.59;;;17.49;59.19
76460;BME280;65299;46.084;18.762;2024-02-26T15:42:21;99758.06;;;17.46;59.49
76460;BME280;65299;46.084;18.762;2024-02-26T15:45:21;99759.00;;;17.41;59.44
76460;BME280;65299;46.084;18.762;2024-02-26T15:48:24;99756.84;;;17.26;60.35
76460;BME280;65299;46.084;18.762;2024-02-26T15:51:25;99763.78;;;17.19;60.12